Time;durP1;ratioP1;P1;durP2;ratioP2;P2;SDS_P1;SDS_P2;PMS_P1;PMS_P2;Temp;Humidity;BMP_temperature;BMP_pressure;BME280_temperature;BME280_humidity;BME280_pressure;Samples;Min_cycle;Max_cycle;Signal;HPM_P1;HPM_P2
2021/05/13 00:01:36;;;;;;;26.65;12.18;;;12.40;99.90;;;;;;3526876;40;20039;-62
2021/05/13 00:04:02;;;;;;;23.85;11.82;;;12.40;99.90;;;;;;3528698;40;20047;-62
2021/05/13 00:06:28;;;;;;;21.17;12.20;;;12.40;99.90;;;;;;3529203;40;20094;-62
2021/05/13 00:08:56;;;;;;;27.27;12.77;;;12.40;99.90;;;;;;3529078;40;20909;-62
2021/05/13 00:11:29;;;;;;;26.70;12.20;;;12.40;99.90;;;;;;3529773;40;20763;-62
2021/05/13 00:13:55;;;;;;;28.65;12.77;;;12.40;99.90;;;;;;3528305;40;20046;-62
2021/05/13 00:16:26;;;;;;;33.85;12.77;;;12.50;99.90;;;;;;3530079;40;20043;-62
2021/05/13 00:18:52;;;;;;;23.50;12.27;;;12.50;99.90;;;;;;3530876;40;20627;-62
2021/05/13 00:21:18;;;;;;;21.98;11.57;;;12.40;99.90;;;;;;3530604;40;20050;-62
2021/05/13 00:23:43;;;;;;;21.60;11.88;;;12.40;99.90;;;;;;3529596;40;20133;-62
2021/05/13 00:26:10;;;;;;;21.27;11.85;;;12.40;99.90;;;;;;3530911;40;20031;-62
2021/05/13 00:28:35;;;;;;;24.90;11.57;;;12.30;99.90;;;;;;3530702;40;20074;-62
2021/05/13 00:31:01;;;;;;;29.25;12.30;;;12.40;99.90;;;;;;3530805;40;20049;-62
2021/05/13 00:33:27;;;;;;;25.55;13.05;;;12.50;99.90;;;;;;3529322;40;20069;-68
2021/05/13 00:35:52;;;;;;;25.25;12.07;;;12.40;99.90;;;;;;3530146;40;20051;-68
2021/05/13 00:38:18;;;;;;;23.73;12.23;;;12.40;99.90;;;;;;3530390;40;20030;-68
2021/05/13 00:40:44;;;;;;;21.60;11.80;;;12.50;99.90;;;;;;3527805;40;20046;-68
2021/05/13 00:43:09;;;;;;;26.50;12.73;;;12.40;99.90;;;;;;3529354;40;20487;-68
2021/05/13 00:45:35;;;;;;;28.77;13.05;;;12.30;99.90;;;;;;3528810;40;20046;-68
2021/05/13 00:48:04;;;;;;;25.25;12.32;;;12.40;99.90;;;;;;3528750;40;20043;-68
2021/05/13 00:50:31;;;;;;;25.27;12.45;;;12.40;99.90;;;;;;3528765;40;20104;-68
2021/05/13 00:52:58;;;;;;;27.30;12.32;;;12.30;99.90;;;;;;3526474;40;20053;-68
2021/05/13 00:55:23;;;;;;;26.50;11.75;;;12.30;99.90;;;;;;3528350;40;20094;-68
2021/05/13 00:57:53;;;;;;;26.30;12.10;;;12.30;99.90;;;;;;3527990;40;20039;-68
2021/05/13 01:02:58;;;;;;;26.65;13.02;;;12.40;99.90;;;;;;3529561;40;20405;-68
2021/05/13 01:05:25;;;;;;;27.88;12.88;;;12.30;99.90;;;;;;3536635;40;20101;-68
2021/05/13 01:07:51;;;;;;;26.88;13.52;;;12.30;99.90;;;;;;3530264;40;20758;-68
2021/05/13 01:10:17;;;;;;;32.25;13.00;;;12.30;99.90;;;;;;3530228;40;20038;-68
2021/05/13 01:12:43;;;;;;;29.88;13.35;;;12.30;99.90;;;;;;3530678;40;20772;-68
2021/05/13 01:15:21;;;;;;;28.30;12.93;;;12.30;99.90;;;;;;3530624;40;20066;-68
2021/05/13 01:20:31;;;;;;;28.52;13.20;;;12.30;99.90;;;;;;3529257;40;20431;-68
2021/05/13 01:22:58;;;;;;;25.88;13.48;;;12.20;99.90;;;;;;3529097;40;20038;-68
2021/05/13 01:25:25;;;;;;;21.35;13.40;;;12.20;99.90;;;;;;3530339;40;20050;-68
2021/05/13 01:27:57;;;;;;;35.45;14.00;;;12.20;99.90;;;;;;3528351;40;20059;-68
2021/05/13 01:30:23;;;;;;;28.85;14.18;;;12.30;99.90;;;;;;3529969;40;20046;-68
2021/05/13 01:32:48;;;;;;;28.77;13.48;;;12.30;99.90;;;;;;3530214;40;20038;-69
2021/05/13 01:35:14;;;;;;;29.83;15.40;;;12.10;99.90;;;;;;3530098;40;20324;-68
2021/05/13 01:37:40;;;;;;;34.45;14.88;;;12.10;99.90;;;;;;3529609;40;20142;-69
2021/05/13 01:40:06;;;;;;;31.05;13.98;;;12.20;99.90;;;;;;3529260;40;20046;-68
2021/05/13 01:42:32;;;;;;;32.20;15.57;;;12.10;99.90;;;;;;3529759;40;20083;-68
2021/05/13 01:44:58;;;;;;;25.20;13.77;;;12.10;99.90;;;;;;3529601;40;20035;-68
2021/05/13 01:47:23;;;;;;;29.92;14.63;;;12.10;99.90;;;;;;3529415;40;20137;-69
2021/05/13 01:49:49;;;;;;;31.70;15.52;;;12.10;99.90;;;;;;3529713;40;20759;-69
2021/05/13 01:52:15;;;;;;;28.08;14.95;;;12.10;99.90;;;;;;3529639;40;20037;-69
2021/05/13 01:54:41;;;;;;;36.45;16.85;;;12.10;99.90;;;;;;3529723;40;20094;-68
2021/05/13 01:57:09;;;;;;;31.52;16.42;;;12.20;99.90;;;;;;3519994;40;20046;-69
2021/05/13 01:59:35;;;;;;;36.10;15.23;;;12.10;99.90;;;;;;3529081;40;20539;-68
2021/05/13 02:02:01;;;;;;;34.65;16.65;;;12.00;99.90;;;;;;3529625;40;20113;-68
2021/05/13 02:04:28;;;;;;;39.42;17.20;;;12.00;99.90;;;;;;3529263;40;20405;-69
2021/05/13 02:06:54;;;;;;;36.85;17.30;;;12.10;99.90;;;;;;3529432;40;20431;-68
2021/05/13 02:09:19;;;;;;;41.90;17.23;;;12.00;99.90;;;;;;3528961;40;20133;-69
2021/05/13 02:11:45;;;;;;;38.10;17.60;;;12.00;99.90;;;;;;3529048;40;20095;-68
2021/05/13 02:14:11;;;;;;;33.67;17.95;;;12.00;99.90;;;;;;3527672;40;20045;-68
2021/05/13 02:16:37;;;;;;;34.92;17.33;;;12.00;99.90;;;;;;3529153;40;20499;-69
2021/05/13 02:19:03;;;;;;;39.53;17.98;;;12.00;99.90;;;;;;3528922;40;20147;-68
2021/05/13 02:21:29;;;;;;;36.85;18.20;;;11.90;99.90;;;;;;3528802;40;20070;-69
2021/05/13 02:23:54;;;;;;;38.90;18.52;;;11.90;99.90;;;;;;3528879;40;20054;-68
2021/05/13 02:26:21;;;;;;;44.13;19.73;;;12.00;99.90;;;;;;3529271;40;20035;-69
2021/05/13 02:28:49;;;;;;;37.72;18.88;;;12.00;99.90;;;;;;3528871;40;20031;-68
2021/05/13 02:31:16;;;;;;;38.75;19.02;;;12.00;99.90;;;;;;3529185;40;20562;-64
2021/05/13 02:33:41;;;;;;;32.97;18.23;;;12.10;99.90;;;;;;3528642;40;20042;-64
2021/05/13 02:36:08;;;;;;;36.50;18.50;;;11.90;99.90;;;;;;3527360;40;20407;-64
2021/05/13 02:38:35;;;;;;;37.55;18.90;;;11.90;99.90;;;;;;3529178;40;20133;-68
2021/05/13 02:41:01;;;;;;;32.47;17.88;;;11.90;99.90;;;;;;3529147;40;20031;-68
2021/05/13 02:43:27;;;;;;;34.22;17.15;;;11.90;99.90;;;;;;3529106;40;20035;-68
2021/05/13 02:45:53;;;;;;;33.47;16.52;;;11.90;99.90;;;;;;3528981;40;20050;-68
2021/05/13 02:48:19;;;;;;;34.85;17.58;;;11.90;99.90;;;;;;3529000;40;20554;-69
2021/05/13 02:50:44;;;;;;;39.72;18.45;;;11.90;99.90;;;;;;3528910;40;20136;-68
2021/05/13 02:53:13;;;;;;;41.80;18.25;;;11.80;99.90;;;;;;3528750;40;20034;-69
2021/05/13 02:55:40;;;;;;;36.35;18.00;;;11.90;99.90;;;;;;3528717;40;20126;-68
2021/05/13 02:58:05;;;;;;;37.65;17.70;;;11.80;99.90;;;;;;3528691;40;20038;-68
2021/05/13 03:00:35;;;;;;;39.97;18.15;;;11.80;99.90;;;;;;3528456;40;20051;-68
2021/05/13 03:03:01;;;;;;;35.60;19.08;;;11.80;99.90;;;;;;3528211;40;20061;-69
2021/05/13 03:05:27;;;;;;;44.55;19.48;;;11.80;99.90;;;;;;3528634;40;20102;-68
2021/05/13 03:08:02;;;;;;;46.88;20.38;;;11.90;99.90;;;;;;3528331;40;20153;-68
2021/05/13 03:11:03;;;;;;;43.45;19.77;;;11.80;99.90;;;;;;3528119;40;20031;-68
2021/05/13 03:13:27;;;;;;;42.65;19.63;;;11.80;99.90;;;;;;3528509;40;20034;-68
2021/05/13 03:15:52;;;;;;;38.28;18.10;;;11.90;99.90;;;;;;3530096;40;20031;-68
2021/05/13 03:18:22;;;;;;;43.78;21.17;;;11.80;99.90;;;;;;3529555;40;20047;-64
2021/05/13 03:21:36;;;;;;;47.58;19.90;;;11.80;99.90;;;;;;3529491;40;20047;-65
2021/05/13 03:23:46;;;;;;;41.88;20.02;;;11.80;99.90;;;;;;3526412;40;20456;-64
2021/05/13 03:26:12;;;;;;;42.65;20.10;;;11.80;99.90;;;;;;3529435;40;20144;-64
2021/05/13 03:28:38;;;;;;;55.75;21.70;;;11.70;99.90;;;;;;3529660;40;20035;-64
2021/05/13 03:31:04;;;;;;;35.40;17.23;;;11.80;99.90;;;;;;3528111;40;20120;-68
2021/05/13 03:33:29;;;;;;;41.55;19.35;;;11.70;99.90;;;;;;3529668;40;20448;-67
2021/05/13 03:35:55;;;;;;;40.53;19.77;;;11.60;99.90;;;;;;3529748;40;20046;-68
2021/05/13 03:38:21;;;;;;;39.97;18.25;;;11.60;99.90;;;;;;3529578;40;20042;-68
2021/05/13 03:40:48;;;;;;;34.83;17.40;;;11.60;99.90;;;;;;3536127;40;20066;-68
2021/05/13 03:43:14;;;;;;;43.80;18.40;;;11.60;99.90;;;;;;3529462;40;20153;-69
2021/05/13 03:45:40;;;;;;;41.00;18.88;;;11.60;99.90;;;;;;3529792;40;20293;-68
2021/05/13 03:48:06;;;;;;;45.78;17.58;;;11.70;99.90;;;;;;3529683;40;20035;-68
2021/05/13 03:50:34;;;;;;;36.33;18.15;;;11.60;99.90;;;;;;3529390;40;20039;-68
2021/05/13 03:53:01;;;;;;;47.05;17.92;;;11.70;99.90;;;;;;3529418;40;20083;-68
2021/05/13 03:55:26;;;;;;;37.05;18.48;;;11.70;99.90;;;;;;3528993;40;20054;-68
2021/05/13 03:57:55;;;;;;;38.55;19.02;;;11.80;99.90;;;;;;3529177;40;20031;-68
2021/05/13 04:00:28;;;;;;;45.92;18.90;;;11.80;99.90;;;;;;3528943;40;20114;-68
2021/05/13 04:02:53;;;;;;;39.25;17.85;;;11.70;99.90;;;;;;3528950;40;20033;-68
2021/05/13 04:05:19;;;;;;;44.78;18.95;;;11.70;99.90;;;;;;3529325;40;20038;-68
2021/05/13 04:07:47;;;;;;;42.28;18.25;;;11.70;99.90;;;;;;3529033;40;20079;-68
2021/05/13 04:10:13;;;;;;;34.88;18.33;;;11.70;99.90;;;;;;3529215;40;20413;-68
2021/05/13 04:12:40;;;;;;;36.70;17.83;;;11.70;99.90;;;;;;3529441;40;20074;-68
2021/05/13 04:15:10;;;;;;;35.38;17.85;;;11.70;99.90;;;;;;3529290;40;20797;-69
2021/05/13 04:17:37;;;;;;;35.38;17.73;;;11.70;99.90;;;;;;3528466;40;20039;-69
2021/05/13 04:20:04;;;;;;;37.67;18.75;;;11.70;99.90;;;;;;3528600;40;20054;-69
2021/05/13 04:22:30;;;;;;;37.72;17.02;;;11.70;99.90;;;;;;3529095;40;20138;-69
2021/05/13 04:24:55;;;;;;;33.00;16.90;;;11.70;99.90;;;;;;3529171;40;20039;-69
2021/05/13 04:27:21;;;;;;;53.72;25.35;;;11.70;99.90;;;;;;3528091;40;20615;-69
2021/05/13 04:29:47;;;;;;;36.70;17.52;;;11.80;99.90;;;;;;3529138;40;20038;-69
2021/05/13 04:32:13;;;;;;;31.45;16.73;;;11.80;99.90;;;;;;3529168;40;20081;-69
2021/05/13 04:34:39;;;;;;;35.50;18.48;;;11.80;99.90;;;;;;3529075;40;20070;-69
2021/05/13 04:37:04;;;;;;;38.53;17.10;;;11.80;99.90;;;;;;3529571;40;20054;-69
2021/05/13 04:39:30;;;;;;;30.30;16.73;;;11.80;99.90;;;;;;3529991;40;20031;-69
2021/05/13 04:41:56;;;;;;;35.55;18.60;;;11.80;99.90;;;;;;3530686;40;20031;-69
2021/05/13 04:44:21;;;;;;;46.25;18.13;;;11.80;99.90;;;;;;3530479;40;20049;-69
2021/05/13 04:46:56;;;;;;;36.08;16.95;;;11.80;99.90;;;;;;3526648;40;20065;-68
2021/05/13 04:49:22;;;;;;;35.95;18.05;;;11.80;99.90;;;;;;3530526;40;20039;-68
2021/05/13 04:51:49;;;;;;;37.22;15.82;;;11.80;99.90;;;;;;3519048;40;20168;-67
2021/05/13 04:54:17;;;;;;;32.70;16.75;;;11.80;99.90;;;;;;3529936;40;20141;-69
2021/05/13 04:56:44;;;;;;;29.95;16.70;;;11.70;99.90;;;;;;3530327;40;20035;-69
2021/05/13 04:59:09;;;;;;;33.25;16.38;;;11.70;99.90;;;;;;3530144;40;20044;-67
2021/05/13 05:01:35;;;;;;;35.35;17.30;;;11.80;99.90;;;;;;3527814;40;20050;-68
2021/05/13 05:04:01;;;;;;;28.42;15.80;;;11.70;99.90;;;;;;3528234;40;20041;-69
2021/05/13 05:06:27;;;;;;;25.30;15.70;;;11.70;99.90;;;;;;3529149;40;20031;-67
2021/05/13 05:08:54;;;;;;;32.10;16.73;;;11.70;99.90;;;;;;3528053;40;20043;-70
2021/05/13 05:11:21;;;;;;;29.92;17.48;;;11.80;99.90;;;;;;3535656;40;20046;-70
2021/05/13 05:13:47;;;;;;;36.55;17.45;;;11.70;99.90;;;;;;3528533;40;20051;-68
2021/05/13 05:16:12;;;;;;;31.95;17.60;;;11.80;99.90;;;;;;3528532;40;20145;-70
2021/05/13 05:18:38;;;;;;;33.80;16.73;;;11.90;99.90;;;;;;3528681;40;20042;-69
2021/05/13 05:21:04;;;;;;;38.47;17.35;;;11.90;99.90;;;;;;3528996;40;20519;-70
2021/05/13 05:23:30;;;;;;;31.70;17.20;;;11.90;99.90;;;;;;3529428;40;20511;-64
2021/05/13 05:25:57;;;;;;;37.55;17.38;;;11.90;99.90;;;;;;3529552;40;20039;-63
2021/05/13 05:28:24;;;;;;;34.00;17.65;;;11.90;99.90;;;;;;3530088;40;20047;-63
2021/05/13 05:30:50;;;;;;;37.40;17.88;;;11.80;99.90;;;;;;3529409;40;20141;-62
2021/05/13 05:33:16;;;;;;;36.63;17.42;;;11.80;99.90;;;;;;3527910;40;20047;-69
2021/05/13 05:35:41;;;;;;;37.38;17.55;;;11.80;99.90;;;;;;3529417;40;20035;-69
2021/05/13 05:38:08;;;;;;;32.95;17.08;;;11.80;99.90;;;;;;3528742;40;20070;-69
2021/05/13 05:40:35;;;;;;;30.00;16.55;;;11.80;99.90;;;;;;3536679;40;20097;-63
2021/05/13 05:43:00;;;;;;;27.88;16.60;;;11.90;99.90;;;;;;3529643;40;20094;-63
2021/05/13 05:45:26;;;;;;;28.80;15.65;;;11.90;99.90;;;;;;3529072;40;20418;-63
2021/05/13 05:48:01;;;;;;;30.80;15.93;;;11.80;99.90;;;;;;3529209;40;20129;-64
2021/05/13 05:50:32;;;;;;;32.72;16.80;;;11.80;99.90;;;;;;3529778;40;20690;-63
2021/05/13 05:52:58;;;;;;;32.45;15.45;;;11.90;99.90;;;;;;3528870;40;20047;-63
2021/05/13 05:55:24;;;;;;;36.95;16.33;;;11.90;99.90;;;;;;3528608;40;20054;-63
2021/05/13 05:57:50;;;;;;;31.58;17.02;;;11.90;99.90;;;;;;3528209;40;20039;-63
2021/05/13 06:00:17;;;;;;;31.38;15.70;;;11.90;99.90;;;;;;3529184;40;20042;-63
2021/05/13 06:02:44;;;;;;;36.17;16.13;;;11.90;99.90;;;;;;3528503;40;20109;-63
2021/05/13 06:05:10;;;;;;;27.85;15.65;;;11.80;99.90;;;;;;3529142;40;20047;-63
2021/05/13 06:07:36;;;;;;;30.60;16.38;;;11.80;99.90;;;;;;3529277;40;20038;-63
2021/05/13 06:10:02;;;;;;;35.50;18.00;;;11.80;99.90;;;;;;3528783;40;20046;-63
2021/05/13 06:12:28;;;;;;;33.90;17.02;;;11.80;99.90;;;;;;3529289;40;20035;-63
2021/05/13 06:14:54;;;;;;;31.42;16.83;;;11.80;99.90;;;;;;3528660;40;20035;-63
2021/05/13 06:17:19;;;;;;;40.25;17.92;;;11.80;99.90;;;;;;3529072;40;20051;-63
2021/05/13 06:19:45;;;;;;;30.25;17.40;;;11.90;99.90;;;;;;3535902;40;20094;-63
2021/05/13 06:22:11;;;;;;;33.17;17.02;;;11.90;99.90;;;;;;3527670;40;20390;-63
2021/05/13 06:24:36;;;;;;;30.90;17.30;;;11.90;99.90;;;;;;3529294;40;20117;-63
2021/05/13 06:27:07;;;;;;;31.90;17.20;;;11.90;99.90;;;;;;3528788;40;20039;-63
2021/05/13 06:29:33;;;;;;;36.30;16.80;;;11.80;99.90;;;;;;3528650;40;20050;-63
2021/05/13 06:31:59;;;;;;;38.03;17.70;;;11.80;99.90;;;;;;3528490;40;20039;-63
2021/05/13 06:34:28;;;;;;;28.60;15.60;;;11.80;99.90;;;;;;3528912;40;20035;-63
2021/05/13 06:36:53;;;;;;;30.50;15.07;;;11.80;99.90;;;;;;3526572;40;20054;-63
2021/05/13 06:39:20;;;;;;;31.20;16.60;;;11.80;99.90;;;;;;3528898;40;20027;-63
2021/05/13 06:41:46;;;;;;;36.55;17.48;;;11.80;99.90;;;;;;3528938;40;20137;-63
2021/05/13 06:44:11;;;;;;;30.98;16.55;;;11.90;99.90;;;;;;3528507;40;20369;-63
2021/05/13 06:46:37;;;;;;;31.05;15.57;;;11.80;99.90;;;;;;3530028;40;20039;-63
2021/05/13 06:49:03;;;;;;;30.88;16.48;;;11.80;99.90;;;;;;3530299;40;20114;-63
2021/05/13 06:51:29;;;;;;;32.80;15.52;;;11.90;99.90;;;;;;3530400;40;20094;-63
2021/05/13 06:53:55;;;;;;;30.58;15.20;;;11.80;99.90;;;;;;3530059;40;20046;-63
2021/05/13 06:56:21;;;;;;;28.85;16.23;;;11.90;99.90;;;;;;3530412;40;20050;-63
2021/05/13 06:58:48;;;;;;;28.10;15.10;;;12.10;99.90;;;;;;3528920;40;20050;-63
2021/05/13 07:01:13;;;;;;;27.30;14.43;;;12.00;99.90;;;;;;3529496;40;20027;-63
2021/05/13 07:03:39;;;;;;;25.73;14.38;;;12.00;99.90;;;;;;3530591;40;20133;-63
2021/05/13 07:06:05;;;;;;;23.20;12.63;;;11.90;99.90;;;;;;3530547;40;20038;-63
2021/05/13 07:08:31;;;;;;;21.52;11.68;;;12.00;99.90;;;;;;3530457;40;20086;-63
2021/05/13 07:10:59;;;;;;;19.00;11.10;;;12.00;99.90;;;;;;3528977;40;20822;-63
2021/05/13 07:13:24;;;;;;;20.67;10.65;;;12.00;99.90;;;;;;3529981;40;20081;-63
2021/05/13 07:15:50;;;;;;;21.92;10.80;;;12.00;99.90;;;;;;3529996;40;20620;-64
2021/05/13 07:18:17;;;;;;;18.63;11.27;;;12.00;99.90;;;;;;3536768;40;20031;-63
2021/05/13 07:20:44;;;;;;;22.88;12.25;;;12.10;99.90;;;;;;3529317;40;20514;-63
2021/05/13 07:23:10;;;;;;;23.17;12.45;;;12.10;99.90;;;;;;3529479;40;20535;-63
2021/05/13 07:25:36;;;;;;;22.48;12.38;;;12.00;99.90;;;;;;3529740;40;20054;-63
2021/05/13 07:28:03;;;;;;;18.85;11.50;;;12.10;99.90;;;;;;3527542;40;20031;-63
2021/05/13 07:30:28;;;;;;;20.52;12.73;;;12.00;99.90;;;;;;3527072;40;20512;-63
2021/05/13 07:32:55;;;;;;;23.15;12.20;;;11.90;99.90;;;;;;3529110;40;20039;-63
2021/05/13 07:35:21;;;;;;;24.63;12.57;;;12.00;99.90;;;;;;3528329;40;20045;-63
2021/05/13 07:37:47;;;;;;;21.30;12.57;;;12.00;99.90;;;;;;3528809;40;20566;-63
2021/05/13 07:40:19;;;;;;;24.77;11.82;;;12.00;99.90;;;;;;3535282;40;20043;-63
2021/05/13 07:42:45;;;;;;;18.15;11.50;;;12.00;99.90;;;;;;3529424;40;20051;-63
2021/05/13 07:45:12;;;;;;;20.15;11.70;;;12.00;99.90;;;;;;3529188;40;20047;-63
2021/05/13 07:47:38;;;;;;;18.75;11.30;;;12.00;99.90;;;;;;3530092;40;20041;-63
2021/05/13 07:50:09;;;;;;;20.08;11.32;;;12.00;99.90;;;;;;3529269;40;20425;-63
2021/05/13 07:52:36;;;;;;;21.38;12.43;;;12.00;99.90;;;;;;3528663;40;20038;-63
2021/05/13 07:55:03;;;;;;;20.85;10.95;;;12.10;99.90;;;;;;3529786;40;20039;-63
2021/05/13 07:57:32;;;;;;;19.80;11.15;;;12.00;99.90;;;;;;3528983;40;20043;-63
2021/05/13 07:59:57;;;;;;;18.30;10.57;;;12.00;99.90;;;;;;3529669;40;20444;-63
2021/05/13 08:02:23;;;;;;;19.00;11.10;;;12.10;99.90;;;;;;3529481;40;20039;-63
2021/05/13 08:04:49;;;;;;;23.50;11.38;;;12.10;99.90;;;;;;3529686;40;20039;-63
2021/05/13 08:07:20;;;;;;;19.48;10.65;;;12.10;99.90;;;;;;3528778;40;20046;-68
2021/05/13 08:09:46;;;;;;;18.33;10.10;;;12.00;99.90;;;;;;3527766;40;20035;-68
2021/05/13 08:12:12;;;;;;;21.65;11.57;;;12.10;99.90;;;;;;3529573;40;20046;-68
2021/05/13 08:14:38;;;;;;;20.70;11.15;;;12.10;99.90;;;;;;3529489;40;20050;-69
2021/05/13 08:17:04;;;;;;;23.30;11.27;;;12.20;99.90;;;;;;3529995;40;20034;-69
2021/05/13 08:19:30;;;;;;;20.88;11.70;;;12.10;99.90;;;;;;3528684;40;20106;-69
2021/05/13 08:21:56;;;;;;;22.42;9.85;;;12.20;99.90;;;;;;3529518;40;20043;-69
2021/05/13 08:24:22;;;;;;;18.63;11.05;;;12.20;99.90;;;;;;3529855;40;20035;-68
2021/05/13 08:26:47;;;;;;;15.45;9.48;;;12.10;99.90;;;;;;3529487;40;20785;-68
2021/05/13 08:29:13;;;;;;;18.25;9.75;;;12.10;99.90;;;;;;3529540;40;20535;-68
2021/05/13 08:31:39;;;;;;;17.63;8.95;;;11.90;99.90;;;;;;3529236;40;20039;-68
2021/05/13 08:34:04;;;;;;;15.88;8.70;;;12.10;99.90;;;;;;3529435;40;20061;-68
2021/05/13 08:36:30;;;;;;;14.32;8.55;;;12.10;99.90;;;;;;3529361;40;20050;-68
2021/05/13 08:38:56;;;;;;;13.40;8.55;;;12.10;99.90;;;;;;3529591;40;20745;-68
2021/05/13 08:41:22;;;;;;;16.23;9.10;;;12.10;99.90;;;;;;3528728;40;20043;-68
2021/05/13 08:43:52;;;;;;;12.10;7.35;;;12.10;99.90;;;;;;3529295;40;20724;-68
2021/05/13 08:46:18;;;;;;;15.65;8.65;;;12.10;99.90;;;;;;3529691;40;20039;-68
2021/05/13 08:48:45;;;;;;;22.35;11.23;;;12.20;99.90;;;;;;3529333;40;20038;-68
2021/05/13 08:51:11;;;;;;;36.75;15.55;;;12.20;99.90;;;;;;3527893;40;20160;-68
2021/05/13 08:53:54;;;;;;;15.68;8.18;;;12.20;99.90;;;;;;3529474;40;20050;-68
2021/05/13 08:56:21;;;;;;;15.45;8.55;;;12.20;99.90;;;;;;3529461;40;20464;-68
2021/05/13 08:58:47;;;;;;;17.27;8.45;;;12.20;99.90;;;;;;3529253;40;20042;-62
2021/05/13 09:01:14;;;;;;;16.90;8.57;;;12.30;99.90;;;;;;3529376;40;20048;-62
2021/05/13 09:03:41;;;;;;;14.77;7.72;;;12.30;99.90;;;;;;3529105;40;20499;-62
2021/05/13 09:06:08;;;;;;;16.42;8.18;;;12.40;99.90;;;;;;3527987;40;20058;-63
2021/05/13 09:08:34;;;;;;;10.65;7.15;;;12.30;99.90;;;;;;3529643;40;20051;-68
2021/05/13 09:11:14;;;;;;;11.93;7.28;;;12.30;99.90;;;;;;3529628;40;20037;-68
2021/05/13 09:13:41;;;;;;;11.75;7.03;;;12.30;99.90;;;;;;3529258;40;20069;-62
2021/05/13 09:16:30;;;;;;;12.63;7.28;;;12.40;99.90;;;;;;3530499;40;20153;-62
2021/05/13 09:18:57;;;;;;;10.38;5.93;;;12.40;99.90;;;;;;3528551;40;20105;-63
2021/05/13 09:21:24;;;;;;;12.18;7.57;;;12.20;99.90;;;;;;3528907;40;20047;-62
2021/05/13 09:23:50;;;;;;;10.65;6.45;;;12.20;99.90;;;;;;3536062;40;20121;-62
2021/05/13 09:26:18;;;;;;;13.98;6.65;;;12.20;99.90;;;;;;3529285;40;20039;-62
2021/05/13 09:28:46;;;;;;;10.68;6.88;;;12.10;99.90;;;;;;3528673;40;20047;-61
2021/05/13 09:31:51;;;;;;;12.63;6.80;;;12.20;99.90;;;;;;3527705;40;20042;-61
2021/05/13 09:34:17;;;;;;;15.45;7.70;;;12.20;99.90;;;;;;3506605;40;20111;-62
2021/05/13 09:36:42;;;;;;;12.52;6.20;;;12.20;99.90;;;;;;3507202;40;20056;-66
2021/05/13 09:39:22;;;;;;;8.40;5.35;;;12.20;99.90;;;;;;3511115;40;20697;-66
2021/05/13 09:41:58;;;;;;;10.10;5.82;;;12.20;99.90;;;;;;3528356;40;20045;-62
2021/05/13 09:44:35;;;;;;;12.77;6.25;;;12.20;99.90;;;;;;3529064;40;20054;-62
2021/05/13 09:47:17;;;;;;;9.95;6.63;;;12.20;99.90;;;;;;3528223;40;20348;-62
2021/05/13 09:49:52;;;;;;;9.93;5.82;;;12.30;99.90;;;;;;3529775;40;20047;-62
2021/05/13 09:52:43;;;;;;;17.77;11.43;;;12.20;99.90;;;;;;3530129;40;20039;-62
2021/05/13 09:55:10;;;;;;;17.05;11.27;;;12.20;99.90;;;;;;3529980;40;20468;-68
2021/05/13 09:57:36;;;;;;;15.75;10.43;;;12.20;99.90;;;;;;3528158;40;20039;-68
2021/05/13 10:00:04;;;;;;;10.02;6.53;;;12.20;99.90;;;;;;3541498;40;20650;-68
2021/05/13 10:02:36;;;;;;;12.55;8.45;;;12.20;99.90;;;;;;3529573;40;20123;-68
2021/05/13 10:05:05;;;;;;;14.02;9.32;;;12.20;99.90;;;;;;3528950;40;20096;-68
2021/05/13 10:07:30;;;;;;;15.15;11.05;;;12.20;99.90;;;;;;3527585;40;20756;-68
2021/05/13 10:09:56;;;;;;;12.00;7.55;;;12.30;99.90;;;;;;3529124;40;20043;-68
2021/05/13 10:12:22;;;;;;;12.20;8.45;;;12.40;99.90;;;;;;3528898;40;20589;-68
2021/05/13 10:14:53;;;;;;;16.40;11.43;;;12.30;99.90;;;;;;3528658;40;20050;-68
2021/05/13 10:17:20;;;;;;;11.73;7.75;;;12.30;99.90;;;;;;3528494;40;20073;-69
2021/05/13 10:19:49;;;;;;;11.10;7.85;;;12.40;99.90;;;;;;3527152;40;20069;-69
2021/05/13 10:22:15;;;;;;;16.63;10.45;;;12.40;99.90;;;;;;3531516;40;20066;-69
2021/05/13 10:24:44;;;;;;;32.83;18.85;;;12.30;99.90;;;;;;3531174;40;20047;-68
2021/05/13 10:27:20;;;;;;;28.50;15.32;;;12.30;99.90;;;;;;3532557;40;20141;-68
2021/05/13 10:29:47;;;;;;;27.23;14.85;;;12.30;99.90;;;;;;3530799;40;20145;-68
2021/05/13 10:32:21;;;;;;;48.47;27.10;;;12.30;99.90;;;;;;3532635;40;20031;-68
2021/05/13 10:34:52;;;;;;;34.03;19.13;;;12.30;99.90;;;;;;3531133;40;20047;-68
2021/05/13 10:37:26;;;;;;;9.77;6.07;;;12.30;99.90;;;;;;3532721;40;20248;-68
2021/05/13 10:40:17;;;;;;;10.77;6.40;;;12.40;99.90;;;;;;3530649;40;20738;-68
2021/05/13 10:42:43;;;;;;;21.60;13.70;;;12.40;99.90;;;;;;3531160;40;20269;-68
2021/05/13 10:45:24;;;;;;;11.15;6.82;;;12.40;99.90;;;;;;3532475;40;20046;-69
2021/05/13 10:48:09;;;;;;;10.77;6.20;;;12.30;99.90;;;;;;3532614;40;20436;-68
2021/05/13 10:50:42;;;;;;;11.82;8.27;;;12.30;99.90;;;;;;3532652;40;20615;-68
2021/05/13 10:56:32;;;;;;;11.68;6.13;;;12.20;99.90;;;;;;3531445;40;20043;-69
2021/05/13 10:59:10;;;;;;;17.40;8.50;;;12.20;99.90;;;;;;3530977;40;20062;-69
2021/05/13 11:01:49;;;;;;;10.05;6.85;;;12.20;99.90;;;;;;3530898;40;20879;-68
2021/05/13 11:04:34;;;;;;;10.68;5.93;;;12.20;99.90;;;;;;3530839;40;20038;-68
2021/05/13 11:07:24;;;;;;;9.65;6.00;;;12.20;99.90;;;;;;3531556;40;20148;-69
2021/05/13 11:09:51;;;;;;;11.07;5.65;;;12.10;99.90;;;;;;3529840;40;20305;-69
2021/05/13 11:12:22;;;;;;;7.90;5.03;;;12.10;99.90;;;;;;3532193;40;20035;-69
2021/05/13 11:14:58;;;;;;;6.53;4.82;;;12.10;99.90;;;;;;3530831;40;20325;-68
2021/05/13 11:17:44;;;;;;;6.60;4.38;;;12.20;99.90;;;;;;3531776;40;20128;-69
2021/05/13 11:20:33;;;;;;;10.88;4.40;;;12.10;99.90;;;;;;3530912;40;20110;-69
2021/05/13 11:23:00;;;;;;;7.63;4.90;;;12.10;99.90;;;;;;3532285;40;20042;-69
2021/05/13 11:25:51;;;;;;;7.03;4.35;;;12.20;99.90;;;;;;3532171;40;20607;-69
2021/05/13 11:28:31;;;;;;;7.93;5.25;;;12.10;99.90;;;;;;3530811;40;20138;-68
2021/05/13 11:31:06;;;;;;;8.55;4.90;;;12.10;99.90;;;;;;3530959;40;20062;-68
2021/05/13 11:33:42;;;;;;;6.85;3.80;;;12.10;99.90;;;;;;3528640;40;20054;-67
2021/05/13 11:36:13;;;;;;;6.57;4.82;;;12.10;99.90;;;;;;3530226;40;20391;-68
2021/05/13 11:38:39;;;;;;;20.83;4.68;;;12.10;99.90;;;;;;3530085;40;20035;-69
2021/05/13 11:41:06;;;;;;;10.50;8.10;;;12.00;99.90;;;;;;3530099;40;20129;-69
2021/05/13 11:43:34;;;;;;;7.20;3.80;;;12.00;99.90;;;;;;3530277;40;20037;-68
2021/05/13 11:46:07;;;;;;;12.05;8.63;;;12.00;99.90;;;;;;3529789;40;20038;-69
2021/05/13 11:48:41;;;;;;;9.27;4.32;;;12.00;99.90;;;;;;3530115;40;20510;-69
2021/05/13 11:51:15;;;;;;;8.10;3.85;;;12.00;99.90;;;;;;3528957;40;20070;-68
2021/05/13 11:53:46;;;;;;;7.07;4.40;;;12.00;99.90;;;;;;3528588;40;20751;-68
2021/05/13 11:56:14;;;;;;;5.82;4.50;;;12.10;99.90;;;;;;3535955;40;20054;-68
2021/05/13 11:58:45;;;;;;;8.73;4.90;;;12.10;99.90;;;;;;3529790;40;20047;-69
2021/05/13 12:01:16;;;;;;;8.85;4.45;;;12.10;99.90;;;;;;3528987;40;20525;-69
2021/05/13 12:03:42;;;;;;;8.95;7.22;;;12.10;99.90;;;;;;3529626;40;20039;-69
2021/05/13 12:06:08;;;;;;;7.28;4.90;;;12.10;99.90;;;;;;3530152;40;20031;-69
2021/05/13 12:08:35;;;;;;;8.43;5.25;;;12.10;99.90;;;;;;3529322;40;20133;-69
2021/05/13 12:11:01;;;;;;;11.18;6.40;;;12.10;99.90;;;;;;3529179;40;20087;-69
2021/05/13 12:13:27;;;;;;;13.32;6.28;;;12.10;99.90;;;;;;3529752;40;20035;-69
2021/05/13 12:16:03;;;;;;;9.07;6.22;;;12.10;99.90;;;;;;3529241;40;20034;-68
2021/05/13 12:18:29;;;;;;;8.50;5.30;;;12.10;99.90;;;;;;3527937;40;20042;-64
2021/05/13 12:20:56;;;;;;;8.20;5.18;;;12.10;99.90;;;;;;3528770;40;20042;-63
2021/05/13 12:23:22;;;;;;;9.98;5.50;;;12.20;99.90;;;;;;3529323;40;20518;-63
2021/05/13 12:25:48;;;;;;;9.85;4.18;;;12.20;99.90;;;;;;3528907;40;20046;-64
2021/05/13 12:28:16;;;;;;;7.50;5.13;;;12.10;99.90;;;;;;3529075;40;20402;-64
2021/05/13 12:30:53;;;;;;;9.68;5.22;;;12.10;99.90;;;;;;3528843;40;20344;-64
2021/05/13 12:33:28;;;;;;;5.80;4.45;;;12.10;99.90;;;;;;3529503;40;20420;-64
2021/05/13 12:35:54;;;;;;;7.13;4.68;;;12.10;99.90;;;;;;3528751;40;20090;-62
2021/05/13 12:38:22;;;;;;;6.20;4.63;;;12.10;99.90;;;;;;3528041;40;20854;-64
2021/05/13 12:40:49;;;;;;;5.70;4.47;;;12.10;99.90;;;;;;3528784;40;20518;-63
2021/05/13 12:43:18;;;;;;;6.40;4.60;;;12.10;99.90;;;;;;3529173;40;20049;-63
2021/05/13 12:45:46;;;;;;;7.10;5.10;;;12.20;99.90;;;;;;3529149;40;20038;-68